Terminal Aerodrome Forecast
Issued by NWS

Home | Current Version | Previous Version | Text Only | Print | Product List | Glossary On
Versions: 1 2 3 4 5 6 7 8 9 10 11 12
000
FTAK31 PAJN 302300
TAFAKT
TAF
PAKT 302321Z 0100/0124 34012KT P6SM FEW040
     FM010300 33005KT P6SM SCT100
     FM012000 13007KT P6SM SCT070 BKN200
      AMD LTD TO CLD VIS AND WIND 0106/0115=

USA.gov is the U.S. government's official web portal to all federal, state and local government web resources and services.